createdAt,value
2022-11-22T00:00:42.313Z,11.23
2022-11-22T00:03:45.478Z,10.90
2022-11-22T00:06:48.674Z,9.35
2022-11-22T00:09:52.088Z,10.43
2022-11-22T00:12:55.700Z,9.73
2022-11-22T00:16:03.998Z,10.13
2022-11-22T00:19:07.199Z,10.05
2022-11-22T00:22:10.453Z,10.02
2022-11-22T00:25:14.504Z,10.27
2022-11-22T00:28:17.897Z,9.93
2022-11-22T00:31:21.099Z,10.00
2022-11-22T00:34:24.433Z,9.40
2022-11-22T00:37:27.645Z,9.30
2022-11-22T00:40:32.119Z,9.40
2022-11-22T00:43:35.509Z,9.73
2022-11-22T00:46:38.993Z,9.45
2022-11-22T00:49:42.223Z,9.50
2022-11-22T00:52:45.440Z,9.15
2022-11-22T00:55:49.087Z,9.05
2022-11-22T00:58:52.707Z,9.07
2022-11-22T01:01:55.939Z,8.73
2022-11-22T01:04:59.314Z,8.95
2022-11-22T01:08:02.542Z,8.50
2022-11-22T01:11:05.905Z,8.60
2022-11-22T01:14:09.131Z,8.63
2022-11-22T01:17:12.366Z,8.82
2022-11-22T01:20:15.696Z,8.57
2022-11-22T01:23:18.898Z,9.02
2022-11-22T01:26:22.201Z,8.57
2022-11-22T01:29:25.487Z,8.73
2022-11-22T01:32:28.739Z,8.60
2022-11-22T01:35:31.904Z,8.60
2022-11-22T01:38:35.312Z,9.02
2022-11-22T01:41:38.514Z,9.18
2022-11-22T01:44:43.249Z,9.33
2022-11-22T01:47:46.465Z,9.98
2022-11-22T01:50:56.221Z,10.27
2022-11-22T01:54:04.238Z,11.30
2022-11-22T01:57:16.969Z,12.23
2022-11-22T02:00:20.810Z,11.70
2022-11-22T02:03:25.953Z,12.02
2022-11-22T02:06:39.572Z,12.68
2022-11-22T02:09:43.536Z,12.27
2022-11-22T02:12:47.038Z,11.43
2022-11-22T02:15:51.812Z,11.60
2022-11-22T02:18:55.144Z,12.45
2022-11-22T02:22:05.810Z,13.40
2022-11-22T02:25:42.127Z,13.18
2022-11-22T02:28:45.525Z,13.63
2022-11-22T02:31:48.838Z,11.95
2022-11-22T02:34:52.230Z,11.73
2022-11-22T02:37:59.153Z,11.65
2022-11-22T02:41:11.543Z,11.27
2022-11-22T02:44:15.090Z,11.33
2022-11-22T02:47:18.340Z,10.98
2022-11-22T02:50:21.683Z,11.23
2022-11-22T02:53:24.944Z,11.65
2022-11-22T02:56:28.154Z,12.00
2022-11-22T02:59:31.711Z,11.85
2022-11-22T03:02:35.280Z,11.73
2022-11-22T03:05:38.509Z,11.68
2022-11-22T03:08:41.777Z,11.63
2022-11-22T03:11:45.277Z,13.07
2022-11-22T03:14:48.509Z,12.57
2022-11-22T03:17:58.811Z,12.60
2022-11-22T03:21:07.716Z,12.80
2022-11-22T03:24:11.747Z,12.70
2022-11-22T03:27:14.974Z,12.55
2022-11-22T03:30:19.697Z,13.20
2022-11-22T03:33:22.916Z,12.80
2022-11-22T03:36:26.137Z,13.40
2022-11-22T03:39:29.608Z,12.88
2022-11-22T03:42:33.175Z,12.93
2022-11-22T03:45:36.385Z,12.75
2022-11-22T03:48:39.477Z,13.13
2022-11-22T03:51:42.774Z,12.63
2022-11-22T03:54:46.089Z,12.37
2022-11-22T03:57:49.284Z,13.25
2022-11-22T04:00:52.548Z,12.45
2022-11-22T04:03:55.804Z,12.52
2022-11-22T04:06:58.933Z,13.13
2022-11-22T04:10:02.164Z,12.68
2022-11-22T04:13:05.412Z,12.02
2022-11-22T04:16:08.777Z,12.25
2022-11-22T04:19:12.020Z,12.50
2022-11-22T04:22:15.481Z,10.65
2022-11-22T04:25:18.613Z,10.32
2022-11-22T04:28:40.417Z,10.10
2022-11-22T04:32:07.024Z,10.98
2022-11-22T04:35:10.188Z,10.48
2022-11-22T04:38:14.055Z,10.93
2022-11-22T04:41:17.538Z,10.10
2022-11-22T04:44:39.444Z,9.63
2022-11-22T04:48:00.688Z,10.13
2022-11-22T04:51:23.667Z,9.40
2022-11-22T04:54:26.928Z,9.57
2022-11-22T04:57:30.044Z,9.63
2022-11-22T05:00:33.825Z,10.43
2022-11-22T05:03:37.093Z,10.20
2022-11-22T05:06:40.274Z,9.88
2022-11-22T05:09:46.196Z,10.48
2022-11-22T05:12:49.435Z,9.18
2022-11-22T05:15:52.922Z,9.07
2022-11-22T05:19:02.054Z,10.20
2022-11-22T05:22:06.473Z,8.77
2022-11-22T05:25:09.970Z,10.03
2022-11-22T05:28:16.171Z,10.10
2022-11-22T05:31:25.295Z,10.27
2022-11-22T05:34:28.434Z,10.60
2022-11-22T05:37:31.636Z,10.68
2022-11-22T05:40:35.029Z,10.25
2022-11-22T05:43:39.006Z,10.80
2022-11-22T05:46:42.216Z,10.17
2022-11-22T05:49:46.179Z,10.38
2022-11-22T05:52:49.290Z,9.85
2022-11-22T05:55:52.418Z,10.37
2022-11-22T05:58:55.620Z,11.40
2022-11-22T06:01:58.856Z,12.07
2022-11-22T06:05:02.040Z,12.13
2022-11-22T06:08:05.544Z,11.68
2022-11-22T06:11:15.193Z,12.30
2022-11-22T06:14:18.383Z,12.82
2022-11-22T06:17:21.501Z,11.70
2022-11-22T06:20:24.783Z,11.60
2022-11-22T06:23:28.963Z,11.13
2022-11-22T06:26:37.646Z,11.68
2022-11-22T06:29:42.853Z,10.73
2022-11-22T06:32:46.224Z,10.68
2022-11-22T06:35:49.577Z,11.13
2022-11-22T06:38:53.274Z,10.93
2022-11-22T06:41:56.475Z,11.03
2022-11-22T06:44:59.776Z,11.80
2022-11-22T06:48:03.009Z,12.13
2022-11-22T06:51:07.504Z,10.32
2022-11-22T06:54:13.698Z,11.37
2022-11-22T06:57:16.965Z,11.10
2022-11-22T07:00:20.290Z,9.82
2022-11-22T07:03:23.561Z,11.13
2022-11-22T07:06:31.616Z,10.80
2022-11-22T07:09:35.575Z,8.68
2022-11-22T07:16:44.252Z,9.75
2022-11-22T07:19:47.598Z,9.60
2022-11-22T07:22:50.975Z,8.45
2022-11-22T07:25:54.291Z,10.00
2022-11-22T07:28:57.731Z,8.85
2022-11-22T07:32:01.228Z,9.55
2022-11-22T07:35:04.988Z,8.70
2022-11-22T07:38:08.273Z,9.00
2022-11-22T07:41:12.129Z,8.48
2022-11-22T07:44:18.412Z,8.95
2022-11-22T07:47:23.240Z,8.48
2022-11-22T07:50:26.747Z,8.80
2022-11-22T07:53:30.112Z,7.95
2022-11-22T07:56:35.267Z,8.63
2022-11-22T07:59:38.540Z,9.00
2022-11-22T08:02:43.659Z,8.45
2022-11-22T08:05:47.073Z,7.40
2022-11-22T08:08:50.693Z,7.70
2022-11-22T08:11:54.388Z,8.15
2022-11-22T08:14:57.721Z,8.70
2022-11-22T08:18:01.005Z,8.40
2022-11-22T08:21:13.014Z,8.30
2022-11-22T08:27:57.421Z,10.60
2022-11-22T08:31:08.556Z,8.57
2022-11-22T08:34:14.487Z,8.07
2022-11-22T08:37:17.772Z,7.13
2022-11-22T08:40:21.119Z,7.43
2022-11-22T08:43:24.756Z,6.75
2022-11-22T08:46:28.174Z,6.30
2022-11-22T08:49:32.025Z,5.63
2022-11-22T08:52:36.271Z,6.15
2022-11-22T08:55:39.729Z,5.57
2022-11-22T08:58:49.682Z,5.15
2022-11-22T09:01:58.033Z,4.47
2022-11-22T09:05:06.531Z,5.50
2022-11-22T09:08:28.938Z,4.88
2022-11-22T09:11:34.753Z,4.20
2022-11-22T09:14:38.224Z,4.90
2022-11-22T09:17:47.733Z,4.38
2022-11-22T09:21:01.262Z,4.80
2022-11-22T09:24:04.866Z,4.53
2022-11-22T09:27:14.267Z,4.20
2022-11-22T09:30:17.761Z,4.53
2022-11-22T09:33:21.381Z,4.28
2022-11-22T09:36:28.683Z,3.97
2022-11-22T09:39:32.558Z,4.50
2022-11-22T09:42:55.582Z,3.83
2022-11-22T09:46:31.870Z,3.80
2022-11-22T09:49:37.872Z,3.88
2022-11-22T09:52:47.566Z,4.30
2022-11-22T09:55:57.574Z,4.00
2022-11-22T09:59:14.072Z,3.45
2022-11-22T10:02:43.371Z,3.53
2022-11-22T10:05:58.556Z,3.53
2022-11-22T10:09:30.401Z,3.28
2022-11-22T10:13:05.724Z,2.92
2022-11-22T10:16:34.983Z,3.22
2022-11-22T10:20:04.948Z,2.87
2022-11-22T10:23:22.932Z,3.22
2022-11-22T10:26:32.736Z,3.42
2022-11-22T10:29:47.161Z,3.58
2022-11-22T10:33:00.334Z,2.85
2022-11-22T10:36:45.440Z,2.97
2022-11-22T10:40:12.631Z,2.60
2022-11-22T10:43:20.399Z,3.03
2022-11-22T10:46:57.709Z,2.70
2022-11-22T10:50:10.469Z,2.33
2022-11-22T10:53:33.085Z,2.20
2022-11-22T10:56:43.332Z,2.40
2022-11-22T11:00:27.715Z,2.15
2022-11-22T11:03:50.359Z,2.10
2022-11-22T11:07:14.084Z,2.10
2022-11-22T11:10:29.566Z,2.20
2022-11-22T11:13:51.969Z,2.08
2022-11-22T11:16:55.626Z,1.90
2022-11-22T11:20:04.435Z,2.28
2022-11-22T11:23:15.176Z,2.00
2022-11-22T11:26:26.328Z,1.80
2022-11-22T11:30:02.628Z,1.50
2022-11-22T11:33:17.056Z,1.30
2022-11-22T11:36:23.513Z,1.30
2022-11-22T11:39:32.114Z,1.50
2022-11-22T11:42:36.136Z,1.33
2022-11-22T11:45:39.511Z,1.13
2022-11-22T11:48:53.400Z,1.10
2022-11-22T11:52:03.979Z,1.15
2022-11-22T11:55:17.514Z,1.10
2022-11-22T11:58:24.748Z,1.20
2022-11-22T12:01:28.438Z,1.30
2022-11-22T12:04:36.281Z,1.35
2022-11-22T12:07:46.472Z,1.00
2022-11-22T12:11:10.114Z,1.17
2022-11-22T12:14:22.486Z,1.30
2022-11-22T12:17:29.588Z,1.10
2022-11-22T12:21:00.658Z,1.00
2022-11-22T12:24:45.633Z,1.00
2022-11-22T12:27:49.428Z,1.00
2022-11-22T12:31:15.287Z,1.03
2022-11-22T12:34:31.631Z,0.90
2022-11-22T12:37:53.789Z,1.00
2022-11-22T12:41:00.683Z,0.90
2022-11-22T12:44:06.963Z,0.65
2022-11-22T12:47:22.014Z,0.73
2022-11-22T12:50:43.885Z,1.00
2022-11-22T12:53:48.466Z,0.55
2022-11-22T12:56:58.228Z,0.80
2022-11-22T13:00:05.478Z,1.17
2022-11-22T13:03:14.117Z,1.00
2022-11-22T13:06:23.575Z,0.98
2022-11-22T13:09:34.105Z,0.90
2022-11-22T13:12:41.792Z,1.00
2022-11-22T13:15:46.592Z,1.00
2022-11-22T13:18:59.208Z,1.03
2022-11-22T13:22:20.504Z,0.90
2022-11-22T13:25:40.737Z,0.90
2022-11-22T13:28:45.275Z,0.75
2022-11-22T13:32:13.658Z,1.00
2022-11-22T13:35:16.912Z,0.90
2022-11-22T13:38:22.633Z,1.20
2022-11-22T13:41:36.632Z,1.15
2022-11-22T13:44:52.433Z,0.98
2022-11-22T13:47:55.731Z,1.02
2022-11-22T13:51:02.821Z,1.23
2022-11-22T13:54:39.557Z,1.20
2022-11-22T13:57:44.320Z,1.30
2022-11-22T14:00:47.664Z,1.10
2022-11-22T14:03:51.789Z,1.23
2022-11-22T14:07:10.193Z,0.90
2022-11-22T14:10:33.068Z,0.75
2022-11-22T14:13:48.320Z,0.77
2022-11-22T14:17:21.038Z,0.82
2022-11-22T14:20:36.291Z,0.90
2022-11-22T14:24:03.867Z,0.70
2022-11-22T14:27:26.880Z,0.60
2022-11-22T14:30:51.852Z,0.85
2022-11-22T14:34:16.919Z,1.30
2022-11-22T14:37:20.227Z,1.10
2022-11-22T14:40:42.328Z,1.27
2022-11-22T14:43:45.771Z,1.15
2022-11-22T14:47:04.743Z,0.93
2022-11-22T14:50:36.932Z,1.00
2022-11-22T14:53:55.171Z,1.20
2022-11-22T14:57:04.611Z,1.20
2022-11-22T15:00:24.031Z,1.30
2022-11-22T15:09:11.678Z,1.25
2022-11-22T15:09:22.948Z,1.27
2022-11-22T15:11:56.181Z,1.20
2022-11-22T15:57:48.909Z,2.38
2022-11-22T16:01:17.902Z,1.90
2022-11-22T16:04:31.377Z,2.10
2022-11-22T16:07:38.965Z,2.20
2022-11-22T16:10:44.773Z,1.83
2022-11-22T16:13:48.155Z,2.00
2022-11-22T16:16:51.425Z,2.20
2022-11-22T16:20:25.841Z,1.90
2022-11-22T16:23:30.719Z,2.17
2022-11-22T16:26:34.009Z,2.45
2022-11-22T16:29:38.284Z,2.28
2022-11-22T16:32:41.902Z,2.67
2022-11-22T16:35:45.942Z,2.65
2022-11-22T16:38:49.822Z,2.60
2022-11-22T16:41:53.643Z,3.00
2022-11-22T16:45:02.428Z,2.28
2022-11-22T16:48:32.530Z,4.45
2022-11-22T16:51:36.710Z,2.20
2022-11-22T16:54:40.677Z,2.40
2022-11-22T16:57:44.264Z,2.60
2022-11-22T17:00:49.386Z,2.40
2022-11-22T17:04:00.548Z,1.88
2022-11-22T17:07:03.882Z,2.33
2022-11-22T17:10:07.988Z,1.90
2022-11-22T17:13:20.003Z,2.03
2022-11-22T17:16:23.671Z,2.08
2022-11-22T17:22:50.158Z,2.03
2022-11-22T17:25:53.951Z,1.80
2022-11-22T17:28:57.368Z,1.80
2022-11-22T17:32:00.996Z,1.92
2022-11-22T17:35:04.827Z,1.60
2022-11-22T17:38:10.258Z,1.70
2022-11-22T17:41:13.716Z,2.10
2022-11-22T17:44:18.186Z,2.38
2022-11-22T17:47:21.643Z,2.70
2022-11-22T17:50:24.951Z,2.38
2022-11-22T17:53:28.471Z,2.37
2022-11-22T17:56:33.672Z,2.25
2022-11-22T17:59:37.201Z,2.00
2022-11-22T18:02:41.580Z,1.85
2022-11-22T18:05:44.794Z,1.30
2022-11-22T18:08:49.371Z,1.55
2022-11-22T18:11:52.612Z,1.77
2022-11-22T18:14:56.157Z,1.88
2022-11-22T18:17:59.311Z,1.52
2022-11-22T18:21:03.313Z,1.40
2022-11-22T18:24:08.581Z,1.40
2022-11-22T18:27:12.216Z,1.50
2022-11-22T18:30:16.079Z,3.35
2022-11-22T18:33:19.593Z,1.63
2022-11-22T18:36:53.940Z,2.30
2022-11-22T18:39:48.860Z,2.33
2022-11-22T18:42:55.877Z,2.30
2022-11-22T18:46:02.968Z,2.00
2022-11-22T18:49:06.497Z,2.08
2022-11-22T18:52:12.067Z,1.83
2022-11-22T18:55:19.908Z,1.40
2022-11-22T18:58:23.437Z,2.20
2022-11-22T19:01:29.465Z,1.50
2022-11-22T19:04:35.575Z,2.43
2022-11-22T19:07:39.636Z,1.77
2022-11-22T19:10:44.015Z,1.58
2022-11-22T19:13:47.343Z,1.58
2022-11-22T19:16:50.878Z,1.50
2022-11-22T19:19:59.106Z,1.30
2022-11-22T19:23:02.609Z,1.40
2022-11-22T19:26:08.472Z,1.40
2022-11-22T19:29:13.041Z,1.20
2022-11-22T19:32:16.773Z,1.30
2022-11-22T19:35:20.803Z,1.40
2022-11-22T19:38:26.835Z,1.55
2022-11-22T19:41:31.960Z,1.20
2022-11-22T19:44:38.028Z,1.30
2022-11-22T19:47:41.292Z,1.35
2022-11-22T19:50:45.133Z,0.80
2022-11-22T19:53:49.208Z,1.20
2022-11-22T19:56:52.674Z,0.90
2022-11-22T20:00:00.023Z,0.97
2022-11-22T20:03:03.944Z,1.10
2022-11-22T20:06:09.135Z,1.10
2022-11-22T20:09:13.255Z,0.82
2022-11-22T20:12:16.694Z,1.27
2022-11-22T20:15:20.293Z,1.23
2022-11-22T20:18:23.865Z,1.27
2022-11-22T20:21:31.562Z,1.33
2022-11-22T20:24:36.283Z,1.52
2022-11-22T20:27:39.906Z,1.40
2022-11-22T20:30:43.365Z,1.70
2022-11-22T20:33:48.884Z,1.50
2022-11-22T20:36:53.663Z,1.33
2022-11-22T20:39:57.135Z,1.73
2022-11-22T20:43:01.316Z,1.60
2022-11-22T20:46:07.980Z,1.63
2022-11-22T20:49:12.936Z,1.40
2022-11-22T20:52:16.151Z,1.33
2022-11-22T20:55:20.418Z,1.38
2022-11-22T20:58:26.157Z,1.55
2022-11-22T21:01:31.617Z,1.50
2022-11-22T21:04:35.158Z,1.37
2022-11-22T21:07:38.552Z,1.33
2022-11-22T21:10:41.911Z,1.20
2022-11-22T21:13:47.230Z,1.40
2022-11-22T21:16:50.469Z,1.60
2022-11-22T21:19:54.337Z,1.27
2022-11-22T21:22:57.746Z,1.30
2022-11-22T21:26:01.201Z,1.33
2022-11-22T21:29:12.893Z,1.33
2022-11-22T21:32:19.246Z,1.60
2022-11-22T21:35:22.480Z,1.98
2022-11-22T21:38:30.977Z,2.15
2022-11-22T21:41:40.535Z,2.40
2022-11-22T21:44:44.358Z,2.00
2022-11-22T21:47:49.757Z,2.22
2022-11-22T21:50:55.333Z,2.42
2022-11-22T21:53:59.446Z,2.47
2022-11-22T21:57:03.148Z,2.70
2022-11-22T22:00:07.154Z,2.47
2022-11-22T22:03:10.892Z,2.38
2022-11-22T22:06:14.173Z,2.60
2022-11-22T22:09:17.440Z,3.20
2022-11-22T22:12:20.587Z,2.83
2022-11-22T22:15:24.270Z,3.38
2022-11-22T22:18:31.661Z,3.25
2022-11-22T22:21:35.059Z,2.25
2022-11-22T22:24:38.237Z,2.33
2022-11-22T22:27:41.467Z,3.15
2022-11-22T22:30:44.617Z,2.90
2022-11-22T22:33:49.080Z,3.50
2022-11-22T22:36:52.345Z,3.60
2022-11-22T22:39:55.609Z,3.50
2022-11-22T22:42:59.094Z,3.45
2022-11-22T22:46:14.055Z,3.70
2022-11-22T22:49:17.260Z,3.25
2022-11-22T22:52:20.520Z,3.20
2022-11-22T22:55:23.760Z,3.20
2022-11-22T22:58:27.221Z,3.35
2022-11-22T23:01:31.653Z,3.22
2022-11-22T23:04:34.864Z,3.07
2022-11-22T23:07:43.708Z,2.75
2022-11-22T23:10:47.176Z,2.83
2022-11-22T23:13:50.569Z,2.60
2022-11-22T23:16:57.688Z,2.92
2022-11-22T23:20:01.548Z,2.53
2022-11-22T23:23:04.866Z,2.70
2022-11-22T23:26:10.736Z,2.63
2022-11-22T23:29:14.556Z,2.45
2022-11-22T23:32:17.936Z,2.35
2022-11-22T23:35:21.723Z,2.17
2022-11-22T23:38:24.943Z,2.38
2022-11-22T23:41:28.278Z,2.30
2022-11-22T23:44:31.449Z,2.30
2022-11-22T23:47:34.662Z,2.30
2022-11-22T23:50:37.868Z,2.37
2022-11-22T23:53:41.501Z,1.98
2022-11-22T23:56:44.779Z,1.90
2022-11-22T23:59:48.013Z,2.28
